Time,TemperatureF,DewpointF,PressureIn,WindDirection,WindDirectionDegrees,WindSpeedMPH,WindSpeedGustMPH,Humidity,HourlyPrecipIn,Conditions,Clouds,dailyrainin,SoftwareType,DateUTC
2013-04-09 00:11:00,56.3,34.7,29.22,NNW,337,1.7,-999.0,44,-99.99,,,0.00,Acu-Link.com,2013-04-09 06:11:00,
2013-04-09 00:27:00,55.6,34.6,29.22,NE,45,2.7,-999.0,45,-99.99,,,0.00,Acu-Link.com,2013-04-09 06:27:00,
2013-04-09 00:42:00,55.2,34.8,29.22,NNE,22,1.7,-999.0,46,-99.99,,,0.00,Acu-Link.com,2013-04-09 06:42:00,
2013-04-09 00:57:00,54.7,34.3,29.21,ESE,112,3.2,-999.0,46,-99.99,,,0.00,Acu-Link.com,2013-04-09 06:57:00,
2013-04-09 01:13:00,54.1,34.3,29.22,ESE,112,2.2,-999.0,47,-99.99,,,0.00,Acu-Link.com,2013-04-09 07:13:00,
2013-04-09 01:28:00,53.4,34.2,29.22,NW,315,2.7,-999.0,48,-99.99,,,0.00,Acu-Link.com,2013-04-09 07:28:00,
2013-04-09 01:43:00,53.1,34.5,29.21,ENE,67,2.2,-999.0,49,-99.99,,,0.00,Acu-Link.com,2013-04-09 07:43:00,
2013-04-09 02:15:00,52.3,34.2,29.19,South,180,0.0,-999.0,50,-99.99,,,0.00,Acu-Link.com,2013-04-09 08:15:00,
2013-04-09 02:30:00,52.3,34.2,29.18,NE,45,0.0,-999.0,50,-99.99,,,0.00,Acu-Link.com,2013-04-09 08:30:00,
2013-04-09 02:46:00,52.2,34.1,29.19,West,270,0.0,-999.0,50,-99.99,,,0.00,Acu-Link.com,2013-04-09 08:46:00,
2013-04-09 03:01:00,52.2,34.1,29.20,North,0,3.7,-999.0,50,-99.99,,,0.00,Acu-Link.com,2013-04-09 09:01:00,
2013-04-09 03:31:00,50.7,35.6,29.17,North,0,0.0,-999.0,56,-99.99,,,0.00,Acu-Link.com,2013-04-09 09:31:00,
2013-04-09 03:46:00,50.4,37.0,29.18,NNE,22,1.7,-999.0,60,-99.99,,,0.00,Acu-Link.com,2013-04-09 09:46:00,
2013-04-09 04:02:00,50.5,37.1,29.19,East,90,0.0,-999.0,60,-99.99,,,0.00,Acu-Link.com,2013-04-09 10:02:00,
2013-04-09 04:17:00,50.7,37.3,29.16,ESE,112,4.7,-999.0,60,-99.99,,,0.00,Acu-Link.com,2013-04-09 10:17:00,
2013-04-09 04:32:00,50.9,37.1,29.16,South,180,0.0,-999.0,59,-99.99,,,0.00,Acu-Link.com,2013-04-09 10:32:00,
2013-04-09 05:02:00,48.7,39.7,29.19,ESE,112,3.2,-999.0,71,-99.99,,,0.01,Acu-Link.com,2013-04-09 11:02:00,
2013-04-09 05:18:00,47.3,39.4,29.20,SW,225,12.5,-999.0,74,-99.99,,,0.01,Acu-Link.com,2013-04-09 11:18:00,
2013-04-09 05:33:00,47.1,39.2,29.20,South,180,4.7,-999.0,74,-99.99,,,0.01,Acu-Link.com,2013-04-09 11:33:00,
2013-04-09 06:04:00,47.8,39.9,29.22,West,270,3.2,-999.0,74,-99.99,,,0.02,Acu-Link.com,2013-04-09 12:04:00,
2013-04-09 06:19:00,48.0,38.7,29.22,SE,135,2.7,-999.0,70,-99.99,,,0.02,Acu-Link.com,2013-04-09 12:19:00,
2013-04-09 06:49:00,48.4,36.0,29.24,SW,225,4.2,-999.0,62,-99.99,,,0.02,Acu-Link.com,2013-04-09 12:49:00,
2013-04-09 07:05:00,48.6,34.5,29.25,West,270,4.2,-999.0,58,-99.99,,,0.02,Acu-Link.com,2013-04-09 13:05:00,
2013-04-09 07:20:00,47.7,36.1,29.28,SW,225,6.3,-999.0,64,-99.99,,,0.02,Acu-Link.com,2013-04-09 13:20:00,
2013-04-09 07:35:00,46.4,36.0,29.28,West,270,3.7,-999.0,67,-99.99,,,0.02,Acu-Link.com,2013-04-09 13:35:00,
2013-04-09 07:50:00,46.2,35.1,29.30,ENE,67,4.2,-999.0,65,-99.99,,,0.02,Acu-Link.com,2013-04-09 13:50:00,
2013-04-09 08:05:00,45.9,31.5,29.30,South,180,3.7,-999.0,57,-99.99,,,0.02,Acu-Link.com,2013-04-09 14:05:00,
2013-04-09 08:21:00,46.4,31.6,29.30,SW,225,3.2,-999.0,56,-99.99,,,0.02,Acu-Link.com,2013-04-09 14:21:00,
2013-04-09 08:36:00,47.5,33.0,29.29,South,180,6.8,-999.0,57,-99.99,,,0.02,Acu-Link.com,2013-04-09 14:36:00,
2013-04-09 08:51:00,47.8,32.4,29.31,ESE,112,7.8,-999.0,55,-99.99,,,0.02,Acu-Link.com,2013-04-09 14:51:00,
2013-04-09 09:06:00,48.2,32.3,29.32,SSW,202,3.7,-999.0,54,-99.99,,,0.02,Acu-Link.com,2013-04-09 15:06:00,
2013-04-09 09:21:00,47.7,31.4,29.34,NNE,22,6.8,-999.0,53,-99.99,,,0.02,Acu-Link.com,2013-04-09 15:21:00,
2013-04-09 09:36:00,45.1,34.0,29.36,NNW,337,8.9,-999.0,65,-99.99,,,0.02,Acu-Link.com,2013-04-09 15:36:00,
2013-04-09 09:51:00,45.0,34.0,29.36,ENE,67,1.1,-999.0,65,-99.99,,,0.02,Acu-Link.com,2013-04-09 15:51:00,
2013-04-09 10:22:00,44.2,36.8,29.37,SSW,202,0.0,-999.0,75,-99.99,,,0.02,Acu-Link.com,2013-04-09 16:22:00,
2013-04-09 10:37:00,44.2,36.4,29.38,NE,45,1.7,-999.0,74,-99.99,,,0.02,Acu-Link.com,2013-04-09 16:37:00,
2013-04-09 10:52:00,45.3,36.5,29.39,NNE,22,1.7,-999.0,71,-99.99,,,0.02,Acu-Link.com,2013-04-09 16:52:00,
2013-04-09 11:07:00,46.6,36.6,29.38,East,90,4.2,-999.0,68,-99.99,,,0.03,Acu-Link.com,2013-04-09 17:07:00,
2013-04-09 11:22:00,47.8,37.0,29.39,ESE,112,3.7,-999.0,66,-99.99,,,0.03,Acu-Link.com,2013-04-09 17:22:00,
2013-04-09 11:38:00,51.1,37.7,29.39,WSW,247,0.0,-999.0,60,-99.99,,,0.03,Acu-Link.com,2013-04-09 17:38:00,
2013-04-09 11:53:00,56.5,39.1,29.39,WSW,247,1.1,-999.0,52,-99.99,,,0.03,Acu-Link.com,2013-04-09 17:53:00,
2013-04-09 12:08:00,63.0,41.3,29.39,West,270,4.2,-999.0,45,-99.99,,,0.03,Acu-Link.com,2013-04-09 18:08:00,
2013-04-09 12:23:00,60.4,37.8,29.40,West,270,2.2,-999.0,43,-99.99,,,0.03,Acu-Link.com,2013-04-09 18:23:00,
2013-04-09 12:54:00,52.5,34.4,29.40,SSE,157,3.7,-999.0,50,-99.99,,,0.03,Acu-Link.com,2013-04-09 18:54:00,
2013-04-09 13:24:00,49.3,32.4,29.40,East,90,2.2,-999.0,52,-99.99,,,0.03,Acu-Link.com,2013-04-09 19:24:00,
2013-04-09 13:39:00,49.3,32.4,29.39,South,180,3.7,-999.0,52,-99.99,,,0.03,Acu-Link.com,2013-04-09 19:39:00,
2013-04-09 13:54:00,49.1,33.2,29.41,WNW,292,0.0,-999.0,54,-99.99,,,0.03,Acu-Link.com,2013-04-09 19:54:00,
2013-04-09 14:25:00,48.0,36.4,29.42,South,180,4.2,-999.0,64,-99.99,,,0.03,Acu-Link.com,2013-04-09 20:25:00,
2013-04-09 14:56:00,47.7,35.3,29.42,SE,135,7.8,-999.0,62,-99.99,,,0.03,Acu-Link.com,2013-04-09 20:56:00,
2013-04-09 15:57:00,42.6,38.1,29.47,ENE,67,2.2,-999.0,84,-99.99,,,0.06,Acu-Link.com,2013-04-09 21:57:00,
2013-04-09 16:12:00,42.4,37.9,29.46,ENE,67,3.2,-999.0,84,-99.99,,,0.07,Acu-Link.com,2013-04-09 22:12:00,
2013-04-09 16:27:00,43.2,38.7,29.46,NNE,22,2.7,-999.0,84,-99.99,,,0.07,Acu-Link.com,2013-04-09 22:27:00,
2013-04-09 16:42:00,44.2,39.7,29.46,North,0,3.2,-999.0,84,-99.99,,,0.07,Acu-Link.com,2013-04-09 22:42:00,
2013-04-09 16:58:00,45.1,39.6,29.46,ENE,67,3.7,-999.0,81,-99.99,,,0.08,Acu-Link.com,2013-04-09 22:58:00,
2013-04-09 17:13:00,46.9,40.7,29.44,ESE,112,1.7,-999.0,79,-99.99,,,0.08,Acu-Link.com,2013-04-09 23:13:00,
2013-04-09 17:28:00,49.5,41.2,29.45,ESE,112,0.0,-999.0,73,-99.99,,,0.08,Acu-Link.com,2013-04-09 23:28:00,
2013-04-09 17:43:00,49.5,39.4,29.46,SW,225,3.2,-999.0,68,-99.99,,,0.08,Acu-Link.com,2013-04-09 23:43:00,
2013-04-09 17:58:00,48.7,38.6,29.48,SE,135,3.7,-999.0,68,-99.99,,,0.08,Acu-Link.com,2013-04-09 23:58:00,
2013-04-09 18:13:00,48.4,37.6,29.48,SSW,202,3.7,-999.0,66,-99.99,,,0.08,Acu-Link.com,2013-04-10 00:13:00,
2013-04-09 18:28:00,47.8,37.0,29.49,WSW,247,2.7,-999.0,66,-99.99,,,0.08,Acu-Link.com,2013-04-10 00:28:00,
2013-04-09 18:44:00,47.5,37.5,29.50,East,90,2.2,-999.0,68,-99.99,,,0.08,Acu-Link.com,2013-04-10 00:44:00,
2013-04-09 18:59:00,46.9,37.3,29.49,ESE,112,2.7,-999.0,69,-99.99,,,0.08,Acu-Link.com,2013-04-10 00:59:00,
2013-04-09 19:14:00,46.6,37.3,29.50,North,0,1.7,-999.0,70,-99.99,,,0.08,Acu-Link.com,2013-04-10 01:14:00,
2013-04-09 19:29:00,46.2,37.0,29.52,NW,315,4.7,-999.0,70,-99.99,,,0.08,Acu-Link.com,2013-04-10 01:29:00,
2013-04-09 19:45:00,46.0,37.1,29.54,SE,135,0.0,-999.0,71,-99.99,,,0.08,Acu-Link.com,2013-04-10 01:45:00,
2013-04-09 20:00:00,45.7,38.2,29.53,ENE,67,0.0,-999.0,75,-99.99,,,0.08,Acu-Link.com,2013-04-10 02:00:00,
2013-04-09 20:15:00,45.0,37.6,29.55,SSW,202,0.0,-999.0,75,-99.99,,,0.08,Acu-Link.com,2013-04-10 02:15:00,
2013-04-09 20:30:00,44.6,37.8,29.55,ESE,112,0.0,-999.0,77,-99.99,,,0.08,Acu-Link.com,2013-04-10 02:30:00,
2013-04-09 21:01:00,43.2,36.8,29.55,East,90,0.0,-999.0,78,-99.99,,,0.08,Acu-Link.com,2013-04-10 03:01:00,
2013-04-09 21:16:00,42.4,36.4,29.56,ESE,112,0.0,-999.0,79,-99.99,,,0.08,Acu-Link.com,2013-04-10 03:16:00,
2013-04-09 21:32:00,42.3,36.3,29.56,WNW,292,0.0,-999.0,79,-99.99,,,0.08,Acu-Link.com,2013-04-10 03:32:00,
2013-04-09 21:47:00,41.5,35.5,29.57,SW,225,0.0,-999.0,79,-99.99,,,0.08,Acu-Link.com,2013-04-10 03:47:00,
2013-04-09 22:02:00,41.0,35.3,29.58,ESE,112,0.0,-999.0,80,-99.99,,,0.08,Acu-Link.com,2013-04-10 04:02:00,
2013-04-09 22:33:00,41.0,35.6,29.58,SE,135,0.0,-999.0,81,-99.99,,,0.08,Acu-Link.com,2013-04-10 04:33:00,
2013-04-09 22:48:00,41.4,36.0,29.58,SE,135,3.7,-999.0,81,-99.99,,,0.08,Acu-Link.com,2013-04-10 04:48:00,
2013-04-09 23:03:00,40.8,35.4,29.58,South,180,1.7,-999.0,81,-99.99,,,0.08,Acu-Link.com,2013-04-10 05:03:00,
2013-04-09 23:18:00,40.6,35.5,29.59,NNW,337,1.7,-999.0,82,-99.99,,,0.08,Acu-Link.com,2013-04-10 05:18:00,
2013-04-09 23:33:00,41.2,36.1,29.59,SE,135,1.7,-999.0,82,-99.99,,,0.08,Acu-Link.com,2013-04-10 05:33:00,
2013-04-09 23:48:00,41.5,36.1,29.59,South,180,0.0,-999.0,81,-99.99,,,0.08,Acu-Link.com,2013-04-10 05:48:00,